sensor_id;sensor_type;location;lat;lon;timestamp;P1;durP1;ratioP1;P2;durP2;ratioP2
44137;SDS011;29800;55.942;37.314;2023-02-15T00:01:41;1.77;;;0.68;;
44137;SDS011;29800;55.942;37.314;2023-02-15T00:04:07;7.20;;;1.00;;
44137;SDS011;29800;55.942;37.314;2023-02-15T00:06:33;2.72;;;0.77;;
44137;SDS011;29800;55.942;37.314;2023-02-15T00:08:59;3.47;;;0.70;;
44137;SDS011;29800;55.942;37.314;2023-02-15T00:11:26;6.07;;;0.65;;
44137;SDS011;29800;55.942;37.314;2023-02-15T00:16:42;4.18;;;0.90;;
44137;SDS011;29800;55.942;37.314;2023-02-15T00:19:08;7.13;;;0.75;;
44137;SDS011;29800;55.942;37.314;2023-02-15T00:21:35;6.32;;;0.75;;
44137;SDS011;29800;55.942;37.314;2023-02-15T00:24:01;3.03;;;0.65;;
44137;SDS011;29800;55.942;37.314;2023-02-15T00:26:27;5.88;;;0.80;;
44137;SDS011;29800;55.942;37.314;2023-02-15T00:28:53;3.35;;;0.70;;
44137;SDS011;29800;55.942;37.314;2023-02-15T00:31:20;3.03;;;0.70;;
44137;SDS011;29800;55.942;37.314;2023-02-15T00:33:46;3.90;;;0.73;;
44137;SDS011;29800;55.942;37.314;2023-02-15T00:36:12;1.05;;;0.47;;
44137;SDS011;29800;55.942;37.314;2023-02-15T00:38:38;3.33;;;0.77;;
44137;SDS011;29800;55.942;37.314;2023-02-15T00:41:04;3.30;;;0.82;;
44137;SDS011;29800;55.942;37.314;2023-02-15T00:43:31;4.43;;;0.82;;
44137;SDS011;29800;55.942;37.314;2023-02-15T00:45:57;3.65;;;0.50;;
44137;SDS011;29800;55.942;37.314;2023-02-15T00:48:23;3.03;;;0.75;;
44137;SDS011;29800;55.942;37.314;2023-02-15T00:50:50;2.75;;;0.82;;
44137;SDS011;29800;55.942;37.314;2023-02-15T00:53:17;3.95;;;1.08;;
44137;SDS011;29800;55.942;37.314;2023-02-15T00:55:43;4.70;;;0.82;;
44137;SDS011;29800;55.942;37.314;2023-02-15T00:58:09;2.47;;;0.88;;
44137;SDS011;29800;55.942;37.314;2023-02-15T01:00:35;6.25;;;1.20;;
44137;SDS011;29800;55.942;37.314;2023-02-15T01:03:01;2.95;;;1.00;;
44137;SDS011;29800;55.942;37.314;2023-02-15T01:05:27;4.97;;;0.88;;
44137;SDS011;29800;55.942;37.314;2023-02-15T01:07:55;3.45;;;0.70;;
44137;SDS011;29800;55.942;37.314;2023-02-15T01:10:21;2.28;;;0.68;;
44137;SDS011;29800;55.942;37.314;2023-02-15T01:12:47;4.20;;;0.95;;
44137;SDS011;29800;55.942;37.314;2023-02-15T01:15:13;2.53;;;0.88;;
44137;SDS011;29800;55.942;37.314;2023-02-15T01:17:39;5.18;;;0.82;;
44137;SDS011;29800;55.942;37.314;2023-02-15T01:20:05;4.32;;;0.70;;
44137;SDS011;29800;55.942;37.314;2023-02-15T01:22:31;4.20;;;0.80;;
44137;SDS011;29800;55.942;37.314;2023-02-15T01:24:57;4.80;;;0.82;;
44137;SDS011;29800;55.942;37.314;2023-02-15T01:27:23;2.70;;;1.13;;
44137;SDS011;29800;55.942;37.314;2023-02-15T01:29:49;4.50;;;0.75;;
44137;SDS011;29800;55.942;37.314;2023-02-15T01:32:14;3.33;;;0.95;;
44137;SDS011;29800;55.942;37.314;2023-02-15T01:34:42;2.53;;;0.80;;
44137;SDS011;29800;55.942;37.314;2023-02-15T01:37:08;5.97;;;1.00;;
44137;SDS011;29800;55.942;37.314;2023-02-15T01:39:34;2.65;;;0.57;;
44137;SDS011;29800;55.942;37.314;2023-02-15T01:41:59;4.93;;;0.95;;
44137;SDS011;29800;55.942;37.314;2023-02-15T01:50:06;2.80;;;1.05;;
44137;SDS011;29800;55.942;37.314;2023-02-15T01:52:36;3.63;;;0.75;;
44137;SDS011;29800;55.942;37.314;2023-02-15T01:55:03;3.22;;;0.73;;
44137;SDS011;29800;55.942;37.314;2023-02-15T01:57:30;3.90;;;0.90;;
44137;SDS011;29800;55.942;37.314;2023-02-15T01:59:56;4.88;;;0.90;;
44137;SDS011;29800;55.942;37.314;2023-02-15T02:02:24;2.33;;;0.80;;
44137;SDS011;29800;55.942;37.314;2023-02-15T02:04:53;2.17;;;0.73;;
44137;SDS011;29800;55.942;37.314;2023-02-15T02:07:21;3.28;;;1.00;;
44137;SDS011;29800;55.942;37.314;2023-02-15T02:09:48;6.43;;;0.93;;
44137;SDS011;29800;55.942;37.314;2023-02-15T02:12:15;4.15;;;1.15;;
44137;SDS011;29800;55.942;37.314;2023-02-15T02:14:41;7.72;;;1.00;;
44137;SDS011;29800;55.942;37.314;2023-02-15T02:22:44;2.55;;;0.65;;
44137;SDS011;29800;55.942;37.314;2023-02-15T02:25:38;4.32;;;1.10;;
44137;SDS011;29800;55.942;37.314;2023-02-15T02:28:31;2.88;;;0.85;;
44137;SDS011;29800;55.942;37.314;2023-02-15T02:33:53;3.30;;;1.10;;
44137;SDS011;29800;55.942;37.314;2023-02-15T02:46:28;6.15;;;1.00;;
44137;SDS011;29800;55.942;37.314;2023-02-15T02:48:55;3.67;;;1.00;;
44137;SDS011;29800;55.942;37.314;2023-02-15T02:51:22;3.75;;;0.85;;
44137;SDS011;29800;55.942;37.314;2023-02-15T02:53:49;3.97;;;1.10;;
44137;SDS011;29800;55.942;37.314;2023-02-15T02:56:30;4.30;;;0.80;;
44137;SDS011;29800;55.942;37.314;2023-02-15T03:01:24;3.15;;;0.88;;
44137;SDS011;29800;55.942;37.314;2023-02-15T03:04:05;5.80;;;1.15;;
44137;SDS011;29800;55.942;37.314;2023-02-15T03:09:12;3.88;;;0.70;;
44137;SDS011;29800;55.942;37.314;2023-02-15T03:11:47;4.13;;;0.90;;
44137;SDS011;29800;55.942;37.314;2023-02-15T03:14:14;4.20;;;0.90;;
44137;SDS011;29800;55.942;37.314;2023-02-15T03:16:40;3.38;;;1.00;;
44137;SDS011;29800;55.942;37.314;2023-02-15T03:19:13;3.05;;;0.95;;
44137;SDS011;29800;55.942;37.314;2023-02-15T03:21:46;3.47;;;0.80;;
44137;SDS011;29800;55.942;37.314;2023-02-15T03:24:17;3.50;;;0.82;;
44137;SDS011;29800;55.942;37.314;2023-02-15T03:26:47;4.40;;;0.85;;
44137;SDS011;29800;55.942;37.314;2023-02-15T03:29:15;5.00;;;1.00;;
44137;SDS011;29800;55.942;37.314;2023-02-15T03:31:42;4.47;;;0.88;;
44137;SDS011;29800;55.942;37.314;2023-02-15T03:34:11;3.53;;;0.93;;
44137;SDS011;29800;55.942;37.314;2023-02-15T03:36:45;2.70;;;0.80;;
44137;SDS011;29800;55.942;37.314;2023-02-15T03:41:46;4.25;;;1.10;;
44137;SDS011;29800;55.942;37.314;2023-02-15T03:44:15;3.13;;;0.70;;
44137;SDS011;29800;55.942;37.314;2023-02-15T03:46:51;5.43;;;1.13;;
44137;SDS011;29800;55.942;37.314;2023-02-15T03:49:27;2.10;;;0.80;;
44137;SDS011;29800;55.942;37.314;2023-02-15T03:51:54;6.88;;;0.90;;
44137;SDS011;29800;55.942;37.314;2023-02-15T03:57:13;5.95;;;0.90;;
44137;SDS011;29800;55.942;37.314;2023-02-15T03:59:57;1.67;;;0.73;;
44137;SDS011;29800;55.942;37.314;2023-02-15T04:03:07;7.85;;;1.20;;
44137;SDS011;29800;55.942;37.314;2023-02-15T04:07:54;8.68;;;1.00;;
44137;SDS011;29800;55.942;37.314;2023-02-15T04:10:20;2.88;;;0.98;;
44137;SDS011;29800;55.942;37.314;2023-02-15T04:13:04;4.00;;;0.95;;
44137;SDS011;29800;55.942;37.314;2023-02-15T04:15:30;6.15;;;1.40;;
44137;SDS011;29800;55.942;37.314;2023-02-15T04:18:14;5.57;;;1.00;;
44137;SDS011;29800;55.942;37.314;2023-02-15T04:20:43;2.75;;;1.00;;
44137;SDS011;29800;55.942;37.314;2023-02-15T04:23:27;2.95;;;0.70;;
44137;SDS011;29800;55.942;37.314;2023-02-15T04:26:11;3.20;;;1.25;;
44137;SDS011;29800;55.942;37.314;2023-02-15T04:28:37;4.32;;;1.08;;
44137;SDS011;29800;55.942;37.314;2023-02-15T04:31:03;3.33;;;1.00;;
44137;SDS011;29800;55.942;37.314;2023-02-15T04:33:29;3.60;;;0.90;;
44137;SDS011;29800;55.942;37.314;2023-02-15T04:35:55;2.95;;;1.15;;
44137;SDS011;29800;55.942;37.314;2023-02-15T04:38:22;2.58;;;1.17;;
44137;SDS011;29800;55.942;37.314;2023-02-15T04:40:51;4.07;;;1.38;;
44137;SDS011;29800;55.942;37.314;2023-02-15T04:43:20;4.68;;;1.15;;
44137;SDS011;29800;55.942;37.314;2023-02-15T04:45:50;4.57;;;1.50;;
44137;SDS011;29800;55.942;37.314;2023-02-15T04:48:16;4.38;;;1.10;;
44137;SDS011;29800;55.942;37.314;2023-02-15T04:50:43;2.42;;;0.80;;
44137;SDS011;29800;55.942;37.314;2023-02-15T04:53:08;4.75;;;1.10;;
44137;SDS011;29800;55.942;37.314;2023-02-15T04:55:34;3.55;;;0.88;;
44137;SDS011;29800;55.942;37.314;2023-02-15T04:58:00;4.45;;;1.00;;
44137;SDS011;29800;55.942;37.314;2023-02-15T05:00:26;5.20;;;0.93;;
44137;SDS011;29800;55.942;37.314;2023-02-15T05:02:53;5.53;;;1.15;;
44137;SDS011;29800;55.942;37.314;2023-02-15T05:05:19;4.63;;;0.93;;
44137;SDS011;29800;55.942;37.314;2023-02-15T05:07:44;3.13;;;1.13;;
44137;SDS011;29800;55.942;37.314;2023-02-15T05:10:10;3.95;;;0.95;;
44137;SDS011;29800;55.942;37.314;2023-02-15T05:12:36;5.28;;;1.48;;
44137;SDS011;29800;55.942;37.314;2023-02-15T05:15:02;3.08;;;1.00;;
44137;SDS011;29800;55.942;37.314;2023-02-15T05:17:29;6.20;;;1.15;;
44137;SDS011;29800;55.942;37.314;2023-02-15T05:19:55;4.15;;;1.08;;
44137;SDS011;29800;55.942;37.314;2023-02-15T05:22:21;4.90;;;1.10;;
44137;SDS011;29800;55.942;37.314;2023-02-15T05:24:46;8.77;;;1.42;;
44137;SDS011;29800;55.942;37.314;2023-02-15T05:27:31;4.05;;;1.20;;
44137;SDS011;29800;55.942;37.314;2023-02-15T05:30:15;3.17;;;1.10;;
44137;SDS011;29800;55.942;37.314;2023-02-15T05:32:41;3.70;;;1.10;;
44137;SDS011;29800;55.942;37.314;2023-02-15T05:35:07;5.82;;;1.45;;
44137;SDS011;29800;55.942;37.314;2023-02-15T05:37:33;10.77;;;1.42;;
44137;SDS011;29800;55.942;37.314;2023-02-15T05:39:59;7.70;;;1.30;;
44137;SDS011;29800;55.942;37.314;2023-02-15T05:42:24;5.07;;;1.33;;
44137;SDS011;29800;55.942;37.314;2023-02-15T05:44:50;4.22;;;1.30;;
44137;SDS011;29800;55.942;37.314;2023-02-15T05:47:16;4.05;;;1.65;;
44137;SDS011;29800;55.942;37.314;2023-02-15T05:49:42;4.20;;;1.35;;
44137;SDS011;29800;55.942;37.314;2023-02-15T05:52:08;5.75;;;1.67;;
44137;SDS011;29800;55.942;37.314;2023-02-15T05:54:33;8.73;;;1.80;;
44137;SDS011;29800;55.942;37.314;2023-02-15T05:56:59;3.63;;;1.48;;
44137;SDS011;29800;55.942;37.314;2023-02-15T05:59:25;6.45;;;1.80;;
44137;SDS011;29800;55.942;37.314;2023-02-15T06:01:51;7.18;;;1.80;;
44137;SDS011;29800;55.942;37.314;2023-02-15T06:04:17;4.80;;;1.65;;
44137;SDS011;29800;55.942;37.314;2023-02-15T06:06:43;7.60;;;1.70;;
44137;SDS011;29800;55.942;37.314;2023-02-15T06:09:10;3.90;;;1.65;;
44137;SDS011;29800;55.942;37.314;2023-02-15T06:11:35;4.63;;;1.48;;
44137;SDS011;29800;55.942;37.314;2023-02-15T06:14:01;8.10;;;1.88;;
44137;SDS011;29800;55.942;37.314;2023-02-15T06:16:27;7.15;;;1.63;;
44137;SDS011;29800;55.942;37.314;2023-02-15T06:18:53;5.35;;;1.80;;
44137;SDS011;29800;55.942;37.314;2023-02-15T06:21:19;5.63;;;1.80;;
44137;SDS011;29800;55.942;37.314;2023-02-15T06:23:47;3.38;;;1.30;;
44137;SDS011;29800;55.942;37.314;2023-02-15T06:26:13;5.60;;;1.42;;
44137;SDS011;29800;55.942;37.314;2023-02-15T06:28:39;6.03;;;1.30;;
44137;SDS011;29800;55.942;37.314;2023-02-15T06:31:06;4.10;;;1.38;;
44137;SDS011;29800;55.942;37.314;2023-02-15T06:33:32;6.15;;;1.02;;
44137;SDS011;29800;55.942;37.314;2023-02-15T06:35:59;6.28;;;1.23;;
44137;SDS011;29800;55.942;37.314;2023-02-15T06:38:25;3.95;;;1.40;;
44137;SDS011;29800;55.942;37.314;2023-02-15T06:40:51;4.72;;;1.15;;
44137;SDS011;29800;55.942;37.314;2023-02-15T06:43:17;4.10;;;1.20;;
44137;SDS011;29800;55.942;37.314;2023-02-15T06:45:43;6.40;;;1.40;;
44137;SDS011;29800;55.942;37.314;2023-02-15T06:48:09;4.05;;;1.00;;
44137;SDS011;29800;55.942;37.314;2023-02-15T06:50:36;6.70;;;1.30;;
44137;SDS011;29800;55.942;37.314;2023-02-15T06:53:02;5.43;;;1.30;;
44137;SDS011;29800;55.942;37.314;2023-02-15T06:55:28;6.28;;;1.55;;
44137;SDS011;29800;55.942;37.314;2023-02-15T06:57:54;4.80;;;1.35;;
44137;SDS011;29800;55.942;37.314;2023-02-15T07:00:20;4.45;;;1.50;;
44137;SDS011;29800;55.942;37.314;2023-02-15T07:02:47;6.43;;;1.50;;
44137;SDS011;29800;55.942;37.314;2023-02-15T07:05:13;6.47;;;1.48;;
44137;SDS011;29800;55.942;37.314;2023-02-15T07:07:39;8.10;;;1.60;;
44137;SDS011;29800;55.942;37.314;2023-02-15T07:10:05;3.17;;;1.40;;
44137;SDS011;29800;55.942;37.314;2023-02-15T07:12:31;7.07;;;1.73;;
44137;SDS011;29800;55.942;37.314;2023-02-15T07:15:07;5.13;;;1.50;;
44137;SDS011;29800;55.942;37.314;2023-02-15T07:17:34;4.03;;;1.90;;
44137;SDS011;29800;55.942;37.314;2023-02-15T07:20:01;6.80;;;1.80;;
44137;SDS011;29800;55.942;37.314;2023-02-15T07:22:29;4.47;;;1.73;;
44137;SDS011;29800;55.942;37.314;2023-02-15T07:24:55;5.13;;;1.52;;
44137;SDS011;29800;55.942;37.314;2023-02-15T07:27:21;2.95;;;1.52;;
44137;SDS011;29800;55.942;37.314;2023-02-15T07:29:46;3.85;;;1.42;;
44137;SDS011;29800;55.942;37.314;2023-02-15T07:32:12;7.75;;;1.60;;
44137;SDS011;29800;55.942;37.314;2023-02-15T07:34:39;2.83;;;1.20;;
44137;SDS011;29800;55.942;37.314;2023-02-15T07:37:05;6.10;;;1.63;;
44137;SDS011;29800;55.942;37.314;2023-02-15T07:39:31;5.28;;;1.50;;
44137;SDS011;29800;55.942;37.314;2023-02-15T07:41:57;2.38;;;1.13;;
44137;SDS011;29800;55.942;37.314;2023-02-15T07:44:29;5.97;;;1.45;;
44137;SDS011;29800;55.942;37.314;2023-02-15T07:46:55;6.10;;;1.48;;
44137;SDS011;29800;55.942;37.314;2023-02-15T07:49:20;3.97;;;1.40;;
44137;SDS011;29800;55.942;37.314;2023-02-15T07:51:46;4.72;;;1.45;;
44137;SDS011;29800;55.942;37.314;2023-02-15T07:54:12;6.78;;;1.42;;
44137;SDS011;29800;55.942;37.314;2023-02-15T07:56:38;3.67;;;1.30;;
44137;SDS011;29800;55.942;37.314;2023-02-15T07:59:04;3.35;;;1.15;;
44137;SDS011;29800;55.942;37.314;2023-02-15T08:01:31;7.18;;;1.63;;
44137;SDS011;29800;55.942;37.314;2023-02-15T08:03:57;4.35;;;1.48;;
44137;SDS011;29800;55.942;37.314;2023-02-15T08:06:24;3.13;;;1.30;;
44137;SDS011;29800;55.942;37.314;2023-02-15T08:08:50;4.30;;;1.17;;
44137;SDS011;29800;55.942;37.314;2023-02-15T08:11:21;3.92;;;1.33;;
44137;SDS011;29800;55.942;37.314;2023-02-15T08:14:14;7.18;;;1.20;;
44137;SDS011;29800;55.942;37.314;2023-02-15T08:16:41;4.53;;;1.20;;
44137;SDS011;29800;55.942;37.314;2023-02-15T08:19:08;3.88;;;1.38;;
44137;SDS011;29800;55.942;37.314;2023-02-15T08:21:36;6.55;;;1.60;;
44137;SDS011;29800;55.942;37.314;2023-02-15T08:24:03;4.05;;;1.27;;
44137;SDS011;29800;55.942;37.314;2023-02-15T08:26:29;2.72;;;1.27;;
44137;SDS011;29800;55.942;37.314;2023-02-15T08:28:56;3.35;;;1.52;;
44137;SDS011;29800;55.942;37.314;2023-02-15T08:31:22;3.50;;;1.20;;
44137;SDS011;29800;55.942;37.314;2023-02-15T08:33:49;2.63;;;1.10;;
44137;SDS011;29800;55.942;37.314;2023-02-15T08:36:16;5.03;;;1.42;;
44137;SDS011;29800;55.942;37.314;2023-02-15T08:38:42;2.83;;;1.33;;
44137;SDS011;29800;55.942;37.314;2023-02-15T08:41:12;3.78;;;1.42;;
44137;SDS011;29800;55.942;37.314;2023-02-15T08:43:38;3.72;;;1.38;;
44137;SDS011;29800;55.942;37.314;2023-02-15T08:46:05;4.35;;;1.27;;
44137;SDS011;29800;55.942;37.314;2023-02-15T08:48:31;5.18;;;1.48;;
44137;SDS011;29800;55.942;37.314;2023-02-15T08:50:57;3.08;;;1.23;;
44137;SDS011;29800;55.942;37.314;2023-02-15T08:53:22;2.90;;;1.20;;
44137;SDS011;29800;55.942;37.314;2023-02-15T08:55:58;3.42;;;1.15;;
44137;SDS011;29800;55.942;37.314;2023-02-15T08:58:24;4.97;;;1.50;;
44137;SDS011;29800;55.942;37.314;2023-02-15T09:00:50;6.13;;;1.20;;
44137;SDS011;29800;55.942;37.314;2023-02-15T09:03:17;4.38;;;1.20;;
44137;SDS011;29800;55.942;37.314;2023-02-15T09:05:46;4.20;;;1.10;;
44137;SDS011;29800;55.942;37.314;2023-02-15T09:08:12;4.78;;;1.50;;
44137;SDS011;29800;55.942;37.314;2023-02-15T09:10:41;4.85;;;1.10;;
44137;SDS011;29800;55.942;37.314;2023-02-15T09:13:07;3.53;;;1.50;;
44137;SDS011;29800;55.942;37.314;2023-02-15T09:15:33;3.15;;;1.20;;
44137;SDS011;29800;55.942;37.314;2023-02-15T09:17:59;3.67;;;1.35;;
44137;SDS011;29800;55.942;37.314;2023-02-15T09:20:28;3.58;;;1.33;;
44137;SDS011;29800;55.942;37.314;2023-02-15T09:22:54;4.13;;;1.38;;
44137;SDS011;29800;55.942;37.314;2023-02-15T09:25:20;5.13;;;1.40;;
44137;SDS011;29800;55.942;37.314;2023-02-15T09:27:46;2.78;;;1.27;;
44137;SDS011;29800;55.942;37.314;2023-02-15T09:30:12;3.55;;;1.77;;
44137;SDS011;29800;55.942;37.314;2023-02-15T09:32:38;3.85;;;1.55;;
44137;SDS011;29800;55.942;37.314;2023-02-15T09:35:04;3.88;;;1.40;;
44137;SDS011;29800;55.942;37.314;2023-02-15T09:37:31;3.03;;;1.27;;
44137;SDS011;29800;55.942;37.314;2023-02-15T09:39:57;3.13;;;1.25;;
44137;SDS011;29800;55.942;37.314;2023-02-15T09:42:27;4.50;;;1.58;;
44137;SDS011;29800;55.942;37.314;2023-02-15T09:47:40;2.28;;;1.05;;
44137;SDS011;29800;55.942;37.314;2023-02-15T09:53:15;3.50;;;1.45;;
44137;SDS011;29800;55.942;37.314;2023-02-15T10:10:48;3.95;;;1.13;;
44137;SDS011;29800;55.942;37.314;2023-02-15T10:15:59;2.70;;;0.93;;
44137;SDS011;29800;55.942;37.314;2023-02-15T10:20:59;2.67;;;1.00;;
44137;SDS011;29800;55.942;37.314;2023-02-15T10:41:57;2.80;;;1.10;;
44137;SDS011;29800;55.942;37.314;2023-02-15T10:44:30;2.35;;;1.05;;
44137;SDS011;29800;55.942;37.314;2023-02-15T10:55:10;2.92;;;1.30;;
44137;SDS011;29800;55.942;37.314;2023-02-15T10:57:42;2.05;;;0.90;;
44137;SDS011;29800;55.942;37.314;2023-02-15T11:07:56;4.68;;;1.33;;
44137;SDS011;29800;55.942;37.314;2023-02-15T11:10:30;2.72;;;1.10;;
44137;SDS011;29800;55.942;37.314;2023-02-15T11:13:00;4.22;;;1.55;;
44137;SDS011;29800;55.942;37.314;2023-02-15T11:15:32;5.55;;;1.38;;
44137;SDS011;29800;55.942;37.314;2023-02-15T11:23:13;3.58;;;1.13;;
44137;SDS011;29800;55.942;37.314;2023-02-15T11:25:43;3.22;;;1.42;;
44137;SDS011;29800;55.942;37.314;2023-02-15T11:28:13;3.15;;;0.98;;
44137;SDS011;29800;55.942;37.314;2023-02-15T11:30:44;3.63;;;1.30;;
44137;SDS011;29800;55.942;37.314;2023-02-15T11:33:25;4.75;;;1.83;;
44137;SDS011;29800;55.942;37.314;2023-02-15T11:35:55;4.97;;;1.15;;
44137;SDS011;29800;55.942;37.314;2023-02-15T11:38:24;3.25;;;1.02;;
44137;SDS011;29800;55.942;37.314;2023-02-15T11:40:53;4.95;;;1.20;;
44137;SDS011;29800;55.942;37.314;2023-02-15T11:45:47;2.67;;;1.15;;
44137;SDS011;29800;55.942;37.314;2023-02-15T11:48:13;3.15;;;1.00;;
44137;SDS011;29800;55.942;37.314;2023-02-15T11:50:40;3.88;;;1.20;;
44137;SDS011;29800;55.942;37.314;2023-02-15T11:53:11;4.60;;;1.52;;
44137;SDS011;29800;55.942;37.314;2023-02-15T11:55:38;4.03;;;1.52;;
44137;SDS011;29800;55.942;37.314;2023-02-15T12:00:32;4.60;;;1.30;;
44137;SDS011;29800;55.942;37.314;2023-02-15T12:03:07;4.75;;;1.35;;
44137;SDS011;29800;55.942;37.314;2023-02-15T12:05:35;3.42;;;1.33;;
44137;SDS011;29800;55.942;37.314;2023-02-15T12:08:12;3.88;;;1.27;;
44137;SDS011;29800;55.942;37.314;2023-02-15T12:13:15;4.35;;;1.45;;
44137;SDS011;29800;55.942;37.314;2023-02-15T12:15:42;1.73;;;0.90;;
44137;SDS011;29800;55.942;37.314;2023-02-15T12:20:46;3.33;;;1.05;;
44137;SDS011;29800;55.942;37.314;2023-02-15T12:23:12;4.47;;;1.23;;
44137;SDS011;29800;55.942;37.314;2023-02-15T12:25:40;3.08;;;1.35;;
44137;SDS011;29800;55.942;37.314;2023-02-15T12:31:02;3.63;;;1.10;;
44137;SDS011;29800;55.942;37.314;2023-02-15T12:33:41;2.97;;;0.98;;
44137;SDS011;29800;55.942;37.314;2023-02-15T12:36:12;2.63;;;1.10;;
44137;SDS011;29800;55.942;37.314;2023-02-15T12:38:39;3.10;;;0.90;;
44137;SDS011;29800;55.942;37.314;2023-02-15T12:41:21;3.47;;;1.20;;
44137;SDS011;29800;55.942;37.314;2023-02-15T12:43:47;3.50;;;1.10;;
44137;SDS011;29800;55.942;37.314;2023-02-15T12:46:27;2.47;;;0.98;;
44137;SDS011;29800;55.942;37.314;2023-02-15T12:49:06;2.30;;;0.93;;
44137;SDS011;29800;55.942;37.314;2023-02-15T12:51:43;3.13;;;0.80;;
44137;SDS011;29800;55.942;37.314;2023-02-15T12:56:54;2.83;;;1.00;;
44137;SDS011;29800;55.942;37.314;2023-02-15T12:59:19;3.47;;;1.00;;
44137;SDS011;29800;55.942;37.314;2023-02-15T13:01:46;2.13;;;0.98;;
44137;SDS011;29800;55.942;37.314;2023-02-15T13:04:20;4.90;;;1.10;;
44137;SDS011;29800;55.942;37.314;2023-02-15T13:06:48;3.08;;;0.95;;
44137;SDS011;29800;55.942;37.314;2023-02-15T13:11:41;1.95;;;1.00;;
44137;SDS011;29800;55.942;37.314;2023-02-15T13:14:30;3.10;;;0.73;;
44137;SDS011;29800;55.942;37.314;2023-02-15T13:16:55;2.28;;;0.90;;
44137;SDS011;29800;55.942;37.314;2023-02-15T13:19:36;2.65;;;1.02;;
44137;SDS011;29800;55.942;37.314;2023-02-15T13:22:06;1.83;;;0.90;;
44137;SDS011;29800;55.942;37.314;2023-02-15T13:24:39;2.22;;;0.93;;
44137;SDS011;29800;55.942;37.314;2023-02-15T13:27:13;2.15;;;1.05;;
44137;SDS011;29800;55.942;37.314;2023-02-15T13:29:39;4.13;;;0.93;;
44137;SDS011;29800;55.942;37.314;2023-02-15T13:32:19;2.50;;;1.10;;
44137;SDS011;29800;55.942;37.314;2023-02-15T13:34:57;3.03;;;1.00;;
44137;SDS011;29800;55.942;37.314;2023-02-15T13:37:34;2.58;;;1.00;;
44137;SDS011;29800;55.942;37.314;2023-02-15T13:40:12;2.40;;;0.95;;
44137;SDS011;29800;55.942;37.314;2023-02-15T13:43:00;1.50;;;0.80;;
44137;SDS011;29800;55.942;37.314;2023-02-15T13:48:28;3.50;;;0.90;;
44137;SDS011;29800;55.942;37.314;2023-02-15T13:56:19;2.22;;;0.90;;
44137;SDS011;29800;55.942;37.314;2023-02-15T14:06:28;2.60;;;1.00;;
44137;SDS011;29800;55.942;37.314;2023-02-15T14:09:08;2.50;;;0.93;;
44137;SDS011;29800;55.942;37.314;2023-02-15T14:19:30;3.20;;;0.82;;
44137;SDS011;29800;55.942;37.314;2023-02-15T14:24:45;3.03;;;1.02;;
44137;SDS011;29800;55.942;37.314;2023-02-15T14:27:13;1.92;;;0.98;;
44137;SDS011;29800;55.942;37.314;2023-02-15T14:29:50;1.80;;;0.90;;
44137;SDS011;29800;55.942;37.314;2023-02-15T14:32:20;2.38;;;1.00;;
44137;SDS011;29800;55.942;37.314;2023-02-15T14:37:18;4.63;;;1.33;;
44137;SDS011;29800;55.942;37.314;2023-02-15T14:45:27;4.80;;;1.30;;
44137;SDS011;29800;55.942;37.314;2023-02-15T14:48:12;2.35;;;1.17;;
44137;SDS011;29800;55.942;37.314;2023-02-15T14:50:42;3.05;;;1.30;;
44137;SDS011;29800;55.942;37.314;2023-02-15T14:56:04;3.83;;;1.30;;
44137;SDS011;29800;55.942;37.314;2023-02-15T14:58:30;1.25;;;0.90;;
44137;SDS011;29800;55.942;37.314;2023-02-15T15:01:03;2.13;;;1.08;;
44137;SDS011;29800;55.942;37.314;2023-02-15T15:03:31;5.47;;;1.45;;
44137;SDS011;29800;55.942;37.314;2023-02-15T15:05:57;2.78;;;1.10;;
44137;SDS011;29800;55.942;37.314;2023-02-15T15:08:45;3.28;;;1.10;;
44137;SDS011;29800;55.942;37.314;2023-02-15T15:13:55;3.78;;;1.50;;
44137;SDS011;29800;55.942;37.314;2023-02-15T15:16:27;4.55;;;1.20;;
44137;SDS011;29800;55.942;37.314;2023-02-15T15:18:55;2.85;;;1.10;;
44137;SDS011;29800;55.942;37.314;2023-02-15T15:24:06;2.47;;;1.20;;
44137;SDS011;29800;55.942;37.314;2023-02-15T15:26:32;1.50;;;0.82;;
44137;SDS011;29800;55.942;37.314;2023-02-15T15:29:02;3.92;;;1.40;;
44137;SDS011;29800;55.942;37.314;2023-02-15T15:31:46;3.05;;;1.33;;
44137;SDS011;29800;55.942;37.314;2023-02-15T15:34:29;1.98;;;0.93;;
44137;SDS011;29800;55.942;37.314;2023-02-15T15:37:05;2.40;;;1.20;;
44137;SDS011;29800;55.942;37.314;2023-02-15T15:50:24;3.08;;;1.50;;
44137;SDS011;29800;55.942;37.314;2023-02-15T15:52:53;2.03;;;1.25;;
44137;SDS011;29800;55.942;37.314;2023-02-15T15:55:20;5.45;;;1.50;;
44137;SDS011;29800;55.942;37.314;2023-02-15T15:57:48;3.67;;;1.50;;
44137;SDS011;29800;55.942;37.314;2023-02-15T16:02:56;4.22;;;1.88;;
44137;SDS011;29800;55.942;37.314;2023-02-15T16:05:26;3.00;;;1.40;;
44137;SDS011;29800;55.942;37.314;2023-02-15T16:07:52;3.60;;;1.67;;
44137;SDS011;29800;55.942;37.314;2023-02-15T16:10:25;2.72;;;1.70;;
44137;SDS011;29800;55.942;37.314;2023-02-15T16:12:51;3.17;;;1.60;;
44137;SDS011;29800;55.942;37.314;2023-02-15T16:15:21;3.90;;;1.90;;
44137;SDS011;29800;55.942;37.314;2023-02-15T16:17:50;3.08;;;1.40;;
44137;SDS011;29800;55.942;37.314;2023-02-15T16:20:24;4.05;;;1.65;;
44137;SDS011;29800;55.942;37.314;2023-02-15T16:23:05;2.85;;;1.30;;
44137;SDS011;29800;55.942;37.314;2023-02-15T16:25:54;4.72;;;1.52;;
44137;SDS011;29800;55.942;37.314;2023-02-15T16:28:24;3.20;;;1.30;;
44137;SDS011;29800;55.942;37.314;2023-02-15T16:31:05;4.30;;;1.30;;
44137;SDS011;29800;55.942;37.314;2023-02-15T16:33:35;2.13;;;1.20;;
44137;SDS011;29800;55.942;37.314;2023-02-15T16:36:02;4.65;;;1.13;;
44137;SDS011;29800;55.942;37.314;2023-02-15T16:41:12;2.05;;;0.90;;
44137;SDS011;29800;55.942;37.314;2023-02-15T16:43:42;2.05;;;0.98;;
44137;SDS011;29800;55.942;37.314;2023-02-15T16:46:31;1.60;;;0.70;;
44137;SDS011;29800;55.942;37.314;2023-02-15T16:51:22;1.25;;;0.63;;
44137;SDS011;29800;55.942;37.314;2023-02-15T16:53:49;1.38;;;0.68;;
44137;SDS011;29800;55.942;37.314;2023-02-15T16:56:15;1.40;;;0.70;;
44137;SDS011;29800;55.942;37.314;2023-02-15T16:58:50;2.03;;;0.60;;
44137;SDS011;29800;55.942;37.314;2023-02-15T17:01:19;1.30;;;0.63;;
44137;SDS011;29800;55.942;37.314;2023-02-15T17:03:47;0.80;;;0.40;;
44137;SDS011;29800;55.942;37.314;2023-02-15T17:06:26;3.00;;;0.70;;
44137;SDS011;29800;55.942;37.314;2023-02-15T17:09:05;1.85;;;0.70;;
44137;SDS011;29800;55.942;37.314;2023-02-15T17:11:42;1.35;;;0.55;;
44137;SDS011;29800;55.942;37.314;2023-02-15T17:19:15;1.38;;;0.82;;
44137;SDS011;29800;55.942;37.314;2023-02-15T17:21:46;2.88;;;0.80;;
44137;SDS011;29800;55.942;37.314;2023-02-15T17:24:46;0.80;;;0.40;;
44137;SDS011;29800;55.942;37.314;2023-02-15T17:27:06;2.70;;;0.45;;
44137;SDS011;29800;55.942;37.314;2023-02-15T17:29:37;2.22;;;0.47;;
44137;SDS011;29800;55.942;37.314;2023-02-15T17:32:04;1.27;;;0.68;;
44137;SDS011;29800;55.942;37.314;2023-02-15T17:34:44;1.27;;;0.60;;
44137;SDS011;29800;55.942;37.314;2023-02-15T17:37:12;1.33;;;0.40;;
44137;SDS011;29800;55.942;37.314;2023-02-15T17:39:38;1.58;;;0.38;;
44137;SDS011;29800;55.942;37.314;2023-02-15T17:42:05;1.08;;;0.50;;
44137;SDS011;29800;55.942;37.314;2023-02-15T17:44:31;1.52;;;0.57;;
44137;SDS011;29800;55.942;37.314;2023-02-15T17:46:57;1.40;;;0.75;;
44137;SDS011;29800;55.942;37.314;2023-02-15T17:49:24;1.15;;;0.70;;
44137;SDS011;29800;55.942;37.314;2023-02-15T17:51:52;2.30;;;0.50;;
44137;SDS011;29800;55.942;37.314;2023-02-15T17:54:18;1.92;;;0.50;;
44137;SDS011;29800;55.942;37.314;2023-02-15T17:57:02;1.33;;;0.68;;